sensor_id;sensor_type;location;lat;lon;timestamp;P1;durP1;ratioP1;P2;durP2;ratioP2
38785;SDS011;24535;45.508;12.252;2023-04-25T00:00:28;5.85;;;4.22;;
38785;SDS011;24535;45.508;12.252;2023-04-25T00:02:54;6.18;;;4.20;;
38785;SDS011;24535;45.508;12.252;2023-04-25T00:05:25;4.75;;;3.80;;
38785;SDS011;24535;45.508;12.252;2023-04-25T00:07:54;5.68;;;4.57;;
38785;SDS011;24535;45.508;12.252;2023-04-25T00:10:20;8.93;;;5.07;;
38785;SDS011;24535;45.508;12.252;2023-04-25T00:12:45;5.60;;;3.85;;
38785;SDS011;24535;45.508;12.252;2023-04-25T00:15:11;5.63;;;4.45;;
38785;SDS011;24535;45.508;12.252;2023-04-25T00:17:37;4.28;;;3.88;;
38785;SDS011;24535;45.508;12.252;2023-04-25T00:20:06;3.95;;;3.55;;
38785;SDS011;24535;45.508;12.252;2023-04-25T00:22:34;5.07;;;4.32;;
38785;SDS011;24535;45.508;12.252;2023-04-25T00:24:59;5.95;;;3.90;;
38785;SDS011;24535;45.508;12.252;2023-04-25T00:27:25;5.05;;;4.28;;
38785;SDS011;24535;45.508;12.252;2023-04-25T00:29:51;5.13;;;3.78;;
38785;SDS011;24535;45.508;12.252;2023-04-25T00:32:17;4.28;;;3.85;;
38785;SDS011;24535;45.508;12.252;2023-04-25T00:34:42;4.53;;;4.13;;
38785;SDS011;24535;45.508;12.252;2023-04-25T00:37:08;6.10;;;4.43;;
38785;SDS011;24535;45.508;12.252;2023-04-25T00:39:33;7.45;;;5.95;;
38785;SDS011;24535;45.508;12.252;2023-04-25T00:41:59;7.97;;;6.43;;
38785;SDS011;24535;45.508;12.252;2023-04-25T00:44:25;6.38;;;4.32;;
38785;SDS011;24535;45.508;12.252;2023-04-25T00:46:52;4.57;;;3.97;;
38785;SDS011;24535;45.508;12.252;2023-04-25T00:49:18;4.88;;;3.63;;
38785;SDS011;24535;45.508;12.252;2023-04-25T00:51:44;4.65;;;3.85;;
38785;SDS011;24535;45.508;12.252;2023-04-25T00:54:10;6.72;;;5.30;;
38785;SDS011;24535;45.508;12.252;2023-04-25T00:56:37;13.75;;;10.98;;
38785;SDS011;24535;45.508;12.252;2023-04-25T00:59:03;8.55;;;6.30;;
38785;SDS011;24535;45.508;12.252;2023-04-25T01:01:29;13.93;;;11.35;;
38785;SDS011;24535;45.508;12.252;2023-04-25T01:03:56;14.43;;;9.55;;
38785;SDS011;24535;45.508;12.252;2023-04-25T01:06:23;8.63;;;6.20;;
38785;SDS011;24535;45.508;12.252;2023-04-25T01:08:49;6.63;;;5.15;;
38785;SDS011;24535;45.508;12.252;2023-04-25T01:14:08;5.22;;;4.70;;
38785;SDS011;24535;45.508;12.252;2023-04-25T01:16:33;5.60;;;4.68;;
38785;SDS011;24535;45.508;12.252;2023-04-25T01:18:59;5.75;;;4.53;;
38785;SDS011;24535;45.508;12.252;2023-04-25T01:21:25;5.00;;;4.57;;
38785;SDS011;24535;45.508;12.252;2023-04-25T01:23:53;4.75;;;4.10;;
38785;SDS011;24535;45.508;12.252;2023-04-25T01:26:19;6.07;;;4.80;;
38785;SDS011;24535;45.508;12.252;2023-04-25T01:28:46;5.43;;;4.35;;
38785;SDS011;24535;45.508;12.252;2023-04-25T01:31:13;6.07;;;4.90;;
38785;SDS011;24535;45.508;12.252;2023-04-25T01:33:40;8.35;;;5.47;;
38785;SDS011;24535;45.508;12.252;2023-04-25T01:36:06;8.20;;;5.97;;
38785;SDS011;24535;45.508;12.252;2023-04-25T01:38:31;9.10;;;6.30;;
38785;SDS011;24535;45.508;12.252;2023-04-25T01:40:57;14.55;;;11.05;;
38785;SDS011;24535;45.508;12.252;2023-04-25T01:43:22;15.70;;;13.98;;
38785;SDS011;24535;45.508;12.252;2023-04-25T01:45:49;13.98;;;10.35;;
38785;SDS011;24535;45.508;12.252;2023-04-25T01:48:14;8.85;;;7.68;;
38785;SDS011;24535;45.508;12.252;2023-04-25T01:50:40;6.53;;;5.32;;
38785;SDS011;24535;45.508;12.252;2023-04-25T01:53:06;5.90;;;5.20;;
38785;SDS011;24535;45.508;12.252;2023-04-25T01:55:36;5.72;;;5.13;;
38785;SDS011;24535;45.508;12.252;2023-04-25T01:58:02;6.05;;;5.13;;
38785;SDS011;24535;45.508;12.252;2023-04-25T02:00:34;6.38;;;5.25;;
38785;SDS011;24535;45.508;12.252;2023-04-25T02:02:59;7.55;;;6.65;;
38785;SDS011;24535;45.508;12.252;2023-04-25T02:05:25;8.45;;;6.93;;
38785;SDS011;24535;45.508;12.252;2023-04-25T02:07:51;7.15;;;6.00;;
38785;SDS011;24535;45.508;12.252;2023-04-25T02:10:16;5.70;;;5.13;;
38785;SDS011;24535;45.508;12.252;2023-04-25T02:12:41;8.85;;;4.93;;
38785;SDS011;24535;45.508;12.252;2023-04-25T02:15:07;7.43;;;4.82;;
38785;SDS011;24535;45.508;12.252;2023-04-25T02:17:33;6.95;;;6.25;;
38785;SDS011;24535;45.508;12.252;2023-04-25T02:19:58;6.80;;;6.15;;
38785;SDS011;24535;45.508;12.252;2023-04-25T02:22:24;7.82;;;6.57;;
38785;SDS011;24535;45.508;12.252;2023-04-25T02:24:49;7.90;;;6.90;;
38785;SDS011;24535;45.508;12.252;2023-04-25T02:27:15;7.10;;;6.40;;
38785;SDS011;24535;45.508;12.252;2023-04-25T02:29:40;7.72;;;6.88;;
38785;SDS011;24535;45.508;12.252;2023-04-25T02:32:05;8.60;;;6.80;;
38785;SDS011;24535;45.508;12.252;2023-04-25T02:34:31;7.20;;;6.38;;
38785;SDS011;24535;45.508;12.252;2023-04-25T02:36:57;7.15;;;6.45;;
38785;SDS011;24535;45.508;12.252;2023-04-25T02:39:22;6.22;;;5.60;;
38785;SDS011;24535;45.508;12.252;2023-04-25T02:41:50;7.82;;;6.13;;
38785;SDS011;24535;45.508;12.252;2023-04-25T02:44:15;8.63;;;6.45;;
38785;SDS011;24535;45.508;12.252;2023-04-25T02:46:41;6.93;;;6.22;;
38785;SDS011;24535;45.508;12.252;2023-04-25T02:49:06;9.07;;;6.95;;
38785;SDS011;24535;45.508;12.252;2023-04-25T02:51:31;6.97;;;6.28;;
38785;SDS011;24535;45.508;12.252;2023-04-25T02:57:19;8.93;;;6.47;;
38785;SDS011;24535;45.508;12.252;2023-04-25T02:59:44;7.45;;;6.47;;
38785;SDS011;24535;45.508;12.252;2023-04-25T03:02:10;7.55;;;6.75;;
38785;SDS011;24535;45.508;12.252;2023-04-25T03:04:36;8.93;;;8.02;;
38785;SDS011;24535;45.508;12.252;2023-04-25T03:07:01;9.15;;;6.72;;
38785;SDS011;24535;45.508;12.252;2023-04-25T03:09:27;7.60;;;6.90;;
38785;SDS011;24535;45.508;12.252;2023-04-25T03:11:52;9.35;;;7.10;;
38785;SDS011;24535;45.508;12.252;2023-04-25T03:14:18;8.50;;;6.45;;
38785;SDS011;24535;45.508;12.252;2023-04-25T03:16:43;6.85;;;6.18;;
38785;SDS011;24535;45.508;12.252;2023-04-25T03:19:10;7.50;;;6.80;;
38785;SDS011;24535;45.508;12.252;2023-04-25T03:21:35;7.68;;;6.95;;
38785;SDS011;24535;45.508;12.252;2023-04-25T03:24:02;8.02;;;7.20;;
38785;SDS011;24535;45.508;12.252;2023-04-25T03:26:28;8.18;;;7.38;;
38785;SDS011;24535;45.508;12.252;2023-04-25T03:28:54;8.60;;;7.53;;
38785;SDS011;24535;45.508;12.252;2023-04-25T03:31:19;7.88;;;7.07;;
38785;SDS011;24535;45.508;12.252;2023-04-25T03:33:45;8.30;;;7.50;;
38785;SDS011;24535;45.508;12.252;2023-04-25T03:36:10;9.18;;;8.25;;
38785;SDS011;24535;45.508;12.252;2023-04-25T03:38:36;8.90;;;7.88;;
38785;SDS011;24535;45.508;12.252;2023-04-25T03:41:02;10.02;;;9.00;;
38785;SDS011;24535;45.508;12.252;2023-04-25T03:43:27;10.60;;;9.43;;
38785;SDS011;24535;45.508;12.252;2023-04-25T03:45:53;9.55;;;8.60;;
38785;SDS011;24535;45.508;12.252;2023-04-25T03:48:18;9.75;;;8.45;;
38785;SDS011;24535;45.508;12.252;2023-04-25T03:50:46;11.00;;;9.85;;
38785;SDS011;24535;45.508;12.252;2023-04-25T03:53:12;12.73;;;10.07;;
38785;SDS011;24535;45.508;12.252;2023-04-25T03:55:38;10.07;;;9.00;;
38785;SDS011;24535;45.508;12.252;2023-04-25T03:58:03;10.02;;;9.02;;
38785;SDS011;24535;45.508;12.252;2023-04-25T04:00:29;10.20;;;9.20;;
38785;SDS011;24535;45.508;12.252;2023-04-25T04:02:54;13.00;;;10.32;;
38785;SDS011;24535;45.508;12.252;2023-04-25T04:05:20;10.82;;;9.73;;
38785;SDS011;24535;45.508;12.252;2023-04-25T04:07:46;10.70;;;9.38;;
38785;SDS011;24535;45.508;12.252;2023-04-25T04:10:11;10.27;;;9.13;;
38785;SDS011;24535;45.508;12.252;2023-04-25T04:12:37;10.70;;;9.15;;
38785;SDS011;24535;45.508;12.252;2023-04-25T04:15:03;10.23;;;9.18;;
38785;SDS011;24535;45.508;12.252;2023-04-25T04:17:30;10.38;;;8.95;;
38785;SDS011;24535;45.508;12.252;2023-04-25T04:19:56;11.52;;;9.63;;
38785;SDS011;24535;45.508;12.252;2023-04-25T04:22:22;9.98;;;9.02;;
38785;SDS011;24535;45.508;12.252;2023-04-25T04:24:49;8.27;;;7.47;;
38785;SDS011;24535;45.508;12.252;2023-04-25T04:27:15;9.27;;;7.35;;
38785;SDS011;24535;45.508;12.252;2023-04-25T04:32:10;9.43;;;8.43;;
38785;SDS011;24535;45.508;12.252;2023-04-25T04:34:35;10.05;;;9.13;;
38785;SDS011;24535;45.508;12.252;2023-04-25T04:37:01;10.48;;;9.38;;
38785;SDS011;24535;45.508;12.252;2023-04-25T04:39:26;11.00;;;9.98;;
38785;SDS011;24535;45.508;12.252;2023-04-25T04:41:52;9.95;;;8.95;;
38785;SDS011;24535;45.508;12.252;2023-04-25T04:44:18;10.77;;;9.48;;
38785;SDS011;24535;45.508;12.252;2023-04-25T04:46:44;12.25;;;10.85;;
38785;SDS011;24535;45.508;12.252;2023-04-25T04:49:09;12.90;;;11.60;;
38785;SDS011;24535;45.508;12.252;2023-04-25T04:51:36;14.30;;;11.75;;
38785;SDS011;24535;45.508;12.252;2023-04-25T04:54:02;12.05;;;10.85;;
38785;SDS011;24535;45.508;12.252;2023-04-25T04:56:28;16.00;;;12.30;;
38785;SDS011;24535;45.508;12.252;2023-04-25T04:58:56;14.13;;;12.75;;
38785;SDS011;24535;45.508;12.252;2023-04-25T05:01:22;14.60;;;13.10;;
38785;SDS011;24535;45.508;12.252;2023-04-25T05:03:48;14.10;;;12.35;;
38785;SDS011;24535;45.508;12.252;2023-04-25T05:06:14;14.50;;;12.85;;
38785;SDS011;24535;45.508;12.252;2023-04-25T05:08:40;16.35;;;12.60;;
38785;SDS011;24535;45.508;12.252;2023-04-25T05:11:05;13.35;;;12.05;;
38785;SDS011;24535;45.508;12.252;2023-04-25T05:13:31;16.50;;;13.13;;
38785;SDS011;24535;45.508;12.252;2023-04-25T05:15:56;12.48;;;11.20;;
38785;SDS011;24535;45.508;12.252;2023-04-25T05:18:22;11.35;;;10.10;;
38785;SDS011;24535;45.508;12.252;2023-04-25T05:20:47;9.93;;;8.55;;
38785;SDS011;24535;45.508;12.252;2023-04-25T05:23:13;11.45;;;8.20;;
38785;SDS011;24535;45.508;12.252;2023-04-25T05:25:38;9.98;;;9.02;;
38785;SDS011;24535;45.508;12.252;2023-04-25T05:28:04;10.18;;;8.13;;
38785;SDS011;24535;45.508;12.252;2023-04-25T05:30:30;10.95;;;9.40;;
38785;SDS011;24535;45.508;12.252;2023-04-25T05:32:56;10.68;;;9.68;;
38785;SDS011;24535;45.508;12.252;2023-04-25T05:35:21;11.07;;;8.95;;
38785;SDS011;24535;45.508;12.252;2023-04-25T05:37:47;10.75;;;7.68;;
38785;SDS011;24535;45.508;12.252;2023-04-25T05:40:12;11.23;;;10.02;;
38785;SDS011;24535;45.508;12.252;2023-04-25T05:42:38;8.55;;;7.55;;
38785;SDS011;24535;45.508;12.252;2023-04-25T05:45:03;11.80;;;9.52;;
38785;SDS011;24535;45.508;12.252;2023-04-25T05:47:29;11.10;;;9.20;;
38785;SDS011;24535;45.508;12.252;2023-04-25T05:49:55;11.25;;;9.70;;
38785;SDS011;24535;45.508;12.252;2023-04-25T05:52:20;12.02;;;10.65;;
38785;SDS011;24535;45.508;12.252;2023-04-25T05:54:46;11.63;;;10.45;;
38785;SDS011;24535;45.508;12.252;2023-04-25T05:57:18;14.77;;;11.18;;
38785;SDS011;24535;45.508;12.252;2023-04-25T05:59:45;10.93;;;9.77;;
38785;SDS011;24535;45.508;12.252;2023-04-25T06:02:11;12.50;;;10.65;;
38785;SDS011;24535;45.508;12.252;2023-04-25T06:04:36;11.48;;;10.38;;
38785;SDS011;24535;45.508;12.252;2023-04-25T06:07:02;12.52;;;11.30;;
38785;SDS011;24535;45.508;12.252;2023-04-25T06:09:27;11.10;;;9.63;;
38785;SDS011;24535;45.508;12.252;2023-04-25T06:11:52;12.77;;;10.70;;
38785;SDS011;24535;45.508;12.252;2023-04-25T06:14:19;12.50;;;10.73;;
38785;SDS011;24535;45.508;12.252;2023-04-25T06:16:44;11.70;;;10.45;;
38785;SDS011;24535;45.508;12.252;2023-04-25T06:19:10;13.40;;;10.68;;
38785;SDS011;24535;45.508;12.252;2023-04-25T06:21:35;12.25;;;11.00;;
38785;SDS011;24535;45.508;12.252;2023-04-25T06:24:02;14.18;;;11.10;;
38785;SDS011;24535;45.508;12.252;2023-04-25T06:26:27;13.18;;;10.77;;
38785;SDS011;24535;45.508;12.252;2023-04-25T06:28:53;14.18;;;11.52;;
38785;SDS011;24535;45.508;12.252;2023-04-25T06:31:18;16.13;;;11.23;;
38785;SDS011;24535;45.508;12.252;2023-04-25T06:33:44;13.80;;;11.13;;
38785;SDS011;24535;45.508;12.252;2023-04-25T06:36:09;12.88;;;11.27;;
38785;SDS011;24535;45.508;12.252;2023-04-25T06:38:35;16.02;;;11.45;;
38785;SDS011;24535;45.508;12.252;2023-04-25T06:41:00;11.52;;;9.13;;
38785;SDS011;24535;45.508;12.252;2023-04-25T06:43:26;12.05;;;10.68;;
38785;SDS011;24535;45.508;12.252;2023-04-25T06:45:51;10.75;;;8.90;;
38785;SDS011;24535;45.508;12.252;2023-04-25T06:48:17;9.98;;;8.70;;
38785;SDS011;24535;45.508;12.252;2023-04-25T06:50:42;9.80;;;7.90;;
38785;SDS011;24535;45.508;12.252;2023-04-25T06:53:08;8.43;;;7.55;;
38785;SDS011;24535;45.508;12.252;2023-04-25T06:55:33;9.82;;;6.20;;
38785;SDS011;24535;45.508;12.252;2023-04-25T06:57:59;11.10;;;8.35;;
38785;SDS011;24535;45.508;12.252;2023-04-25T07:00:25;9.45;;;8.05;;
38785;SDS011;24535;45.508;12.252;2023-04-25T07:02:51;8.95;;;7.72;;
38785;SDS011;24535;45.508;12.252;2023-04-25T07:05:16;12.30;;;8.98;;
38785;SDS011;24535;45.508;12.252;2023-04-25T07:07:42;11.57;;;8.40;;
38785;SDS011;24535;45.508;12.252;2023-04-25T07:10:07;9.60;;;7.85;;
38785;SDS011;24535;45.508;12.252;2023-04-25T07:12:33;7.80;;;5.88;;
38785;SDS011;24535;45.508;12.252;2023-04-25T07:14:58;7.85;;;6.70;;
38785;SDS011;24535;45.508;12.252;2023-04-25T07:17:24;8.07;;;6.90;;
38785;SDS011;24535;45.508;12.252;2023-04-25T07:19:49;8.40;;;7.32;;
38785;SDS011;24535;45.508;12.252;2023-04-25T07:22:15;8.98;;;7.45;;
38785;SDS011;24535;45.508;12.252;2023-04-25T07:24:40;9.15;;;7.07;;
38785;SDS011;24535;45.508;12.252;2023-04-25T07:27:06;8.13;;;6.45;;
38785;SDS011;24535;45.508;12.252;2023-04-25T07:29:31;7.63;;;6.10;;
38785;SDS011;24535;45.508;12.252;2023-04-25T07:31:57;10.18;;;7.75;;
38785;SDS011;24535;45.508;12.252;2023-04-25T07:34:22;7.40;;;6.20;;
38785;SDS011;24535;45.508;12.252;2023-04-25T07:36:48;10.18;;;8.10;;
38785;SDS011;24535;45.508;12.252;2023-04-25T07:39:13;9.88;;;7.78;;
38785;SDS011;24535;45.508;12.252;2023-04-25T07:41:39;11.40;;;9.15;;
38785;SDS011;24535;45.508;12.252;2023-04-25T07:44:04;12.13;;;10.55;;
38785;SDS011;24535;45.508;12.252;2023-04-25T07:46:30;11.98;;;10.32;;
38785;SDS011;24535;45.508;12.252;2023-04-25T07:48:55;11.57;;;10.45;;
38785;SDS011;24535;45.508;12.252;2023-04-25T07:51:20;11.10;;;10.10;;
38785;SDS011;24535;45.508;12.252;2023-04-25T07:53:47;12.35;;;9.68;;
38785;SDS011;24535;45.508;12.252;2023-04-25T07:56:12;14.23;;;11.68;;
38785;SDS011;24535;45.508;12.252;2023-04-25T07:58:38;12.95;;;10.93;;
38785;SDS011;24535;45.508;12.252;2023-04-25T08:01:03;13.27;;;11.88;;
38785;SDS011;24535;45.508;12.252;2023-04-25T08:03:29;13.40;;;10.68;;
38785;SDS011;24535;45.508;12.252;2023-04-25T08:05:55;13.98;;;11.38;;
38785;SDS011;24535;45.508;12.252;2023-04-25T08:08:20;16.02;;;11.70;;
38785;SDS011;24535;45.508;12.252;2023-04-25T08:10:46;13.38;;;11.98;;
38785;SDS011;24535;45.508;12.252;2023-04-25T08:13:13;13.45;;;10.55;;
38785;SDS011;24535;45.508;12.252;2023-04-25T08:15:38;12.65;;;11.38;;
38785;SDS011;24535;45.508;12.252;2023-04-25T08:18:04;11.82;;;10.73;;
38785;SDS011;24535;45.508;12.252;2023-04-25T08:20:30;11.85;;;9.77;;
38785;SDS011;24535;45.508;12.252;2023-04-25T08:22:55;10.82;;;9.68;;
38785;SDS011;24535;45.508;12.252;2023-04-25T08:25:21;14.80;;;10.60;;
38785;SDS011;24535;45.508;12.252;2023-04-25T08:27:46;12.20;;;11.00;;
38785;SDS011;24535;45.508;12.252;2023-04-25T08:30:12;10.75;;;9.60;;
38785;SDS011;24535;45.508;12.252;2023-04-25T08:32:38;13.45;;;11.45;;
38785;SDS011;24535;45.508;12.252;2023-04-25T08:35:03;15.43;;;12.32;;
38785;SDS011;24535;45.508;12.252;2023-04-25T08:37:29;15.75;;;11.13;;
38785;SDS011;24535;45.508;12.252;2023-04-25T08:39:54;11.63;;;10.02;;
38785;SDS011;24535;45.508;12.252;2023-04-25T08:42:21;15.05;;;12.52;;
38785;SDS011;24535;45.508;12.252;2023-04-25T08:45:02;17.45;;;12.88;;
38785;SDS011;24535;45.508;12.252;2023-04-25T08:47:29;14.82;;;12.65;;
38785;SDS011;24535;45.508;12.252;2023-04-25T08:49:56;18.00;;;12.25;;
38785;SDS011;24535;45.508;12.252;2023-04-25T08:52:22;13.48;;;11.38;;
38785;SDS011;24535;45.508;12.252;2023-04-25T08:54:49;12.98;;;11.57;;
38785;SDS011;24535;45.508;12.252;2023-04-25T08:57:16;13.10;;;11.23;;
38785;SDS011;24535;45.508;12.252;2023-04-25T08:59:42;17.20;;;12.38;;
38785;SDS011;24535;45.508;12.252;2023-04-25T09:02:11;15.52;;;11.73;;
38785;SDS011;24535;45.508;12.252;2023-04-25T09:04:42;16.73;;;10.95;;
38785;SDS011;24535;45.508;12.252;2023-04-25T09:07:08;12.52;;;9.35;;
38785;SDS011;24535;45.508;12.252;2023-04-25T09:09:34;11.98;;;9.63;;
38785;SDS011;24535;45.508;12.252;2023-04-25T09:12:00;11.73;;;10.43;;
38785;SDS011;24535;45.508;12.252;2023-04-25T09:14:26;93.55;;;54.58;;
38785;SDS011;24535;45.508;12.252;2023-04-25T09:19:39;49.85;;;29.50;;
38785;SDS011;24535;45.508;12.252;2023-04-25T09:22:05;19.67;;;16.08;;
38785;SDS011;24535;45.508;12.252;2023-04-25T09:27:22;16.48;;;12.93;;
38785;SDS011;24535;45.508;12.252;2023-04-25T09:29:56;13.63;;;10.52;;
38785;SDS011;24535;45.508;12.252;2023-04-25T09:32:25;12.15;;;9.93;;
38785;SDS011;24535;45.508;12.252;2023-04-25T09:34:53;11.02;;;8.40;;
38785;SDS011;24535;45.508;12.252;2023-04-25T09:37:24;11.43;;;8.25;;
38785;SDS011;24535;45.508;12.252;2023-04-25T09:42:22;6.72;;;5.60;;
38785;SDS011;24535;45.508;12.252;2023-04-25T09:44:49;7.15;;;5.43;;
38785;SDS011;24535;45.508;12.252;2023-04-25T09:47:17;7.45;;;5.68;;
38785;SDS011;24535;45.508;12.252;2023-04-25T09:49:43;5.72;;;4.78;;
38785;SDS011;24535;45.508;12.252;2023-04-25T09:52:09;5.30;;;3.50;;
38785;SDS011;24535;45.508;12.252;2023-04-25T09:54:39;8.02;;;3.90;;
38785;SDS011;24535;45.508;12.252;2023-04-25T09:57:15;5.10;;;3.47;;
38785;SDS011;24535;45.508;12.252;2023-04-25T09:59:53;3.70;;;2.97;;
38785;SDS011;24535;45.508;12.252;2023-04-25T10:02:20;7.47;;;2.85;;
38785;SDS011;24535;45.508;12.252;2023-04-25T10:04:49;7.30;;;2.70;;
38785;SDS011;24535;45.508;12.252;2023-04-25T10:07:18;8.05;;;2.97;;
38785;SDS011;24535;45.508;12.252;2023-04-25T10:09:44;8.85;;;2.53;;
38785;SDS011;24535;45.508;12.252;2023-04-25T10:12:13;9.48;;;1.58;;
38785;SDS011;24535;45.508;12.252;2023-04-25T10:14:38;6.50;;;2.13;;
38785;SDS011;24535;45.508;12.252;2023-04-25T10:17:05;5.13;;;1.63;;
38785;SDS011;24535;45.508;12.252;2023-04-25T10:19:31;5.78;;;1.55;;
38785;SDS011;24535;45.508;12.252;2023-04-25T10:25:02;4.28;;;2.03;;
38785;SDS011;24535;45.508;12.252;2023-04-25T10:27:29;6.15;;;1.15;;
38785;SDS011;24535;45.508;12.252;2023-04-25T10:32:30;3.53;;;3.20;;
38785;SDS011;24535;45.508;12.252;2023-04-25T10:35:06;1.70;;;1.05;;
38785;SDS011;24535;45.508;12.252;2023-04-25T10:37:59;2.43;;;1.40;;
38785;SDS011;24535;45.508;12.252;2023-04-25T10:40:34;5.72;;;1.20;;
38785;SDS011;24535;45.508;12.252;2023-04-25T10:46:13;6.82;;;1.13;;
38785;SDS011;24535;45.508;12.252;2023-04-25T10:48:45;4.28;;;0.93;;
38785;SDS011;24535;45.508;12.252;2023-04-25T10:53:41;6.05;;;1.20;;
38785;SDS011;24535;45.508;12.252;2023-04-25T10:56:10;9.73;;;1.38;;
38785;SDS011;24535;45.508;12.252;2023-04-25T10:58:41;3.38;;;1.10;;
38785;SDS011;24535;45.508;12.252;2023-04-25T11:01:07;0.93;;;0.70;;
38785;SDS011;24535;45.508;12.252;2023-04-25T11:03:37;5.63;;;0.82;;
38785;SDS011;24535;45.508;12.252;2023-04-25T11:06:05;6.28;;;0.93;;
38785;SDS011;24535;45.508;12.252;2023-04-25T11:09:09;3.28;;;0.70;;
38785;SDS011;24535;45.508;12.252;2023-04-25T11:11:28;2.17;;;0.88;;
38785;SDS011;24535;45.508;12.252;2023-04-25T11:13:54;2.40;;;0.75;;
38785;SDS011;24535;45.508;12.252;2023-04-25T11:16:20;2.28;;;0.75;;
38785;SDS011;24535;45.508;12.252;2023-04-25T11:18:50;4.70;;;0.65;;
38785;SDS011;24535;45.508;12.252;2023-04-25T11:21:15;2.60;;;0.70;;
38785;SDS011;24535;45.508;12.252;2023-04-25T11:23:41;6.53;;;1.33;;
38785;SDS011;24535;45.508;12.252;2023-04-25T11:26:10;4.07;;;0.50;;
38785;SDS011;24535;45.508;12.252;2023-04-25T11:28:36;8.30;;;3.25;;
38785;SDS011;24535;45.508;12.252;2023-04-25T11:31:02;2.65;;;1.00;;
38785;SDS011;24535;45.508;12.252;2023-04-25T11:33:29;3.15;;;0.60;;
38785;SDS011;24535;45.508;12.252;2023-04-25T11:35:55;1.42;;;0.80;;
38785;SDS011;24535;45.508;12.252;2023-04-25T11:38:24;2.08;;;0.95;;
38785;SDS011;24535;45.508;12.252;2023-04-25T11:40:54;6.65;;;1.33;;
38785;SDS011;24535;45.508;12.252;2023-04-25T11:43:20;2.55;;;1.33;;
38785;SDS011;24535;45.508;12.252;2023-04-25T11:45:47;2.67;;;0.63;;
38785;SDS011;24535;45.508;12.252;2023-04-25T11:48:13;2.60;;;0.70;;
38785;SDS011;24535;45.508;12.252;2023-04-25T11:50:39;1.88;;;0.98;;
38785;SDS011;24535;45.508;12.252;2023-04-25T11:53:05;2.30;;;1.25;;
38785;SDS011;24535;45.508;12.252;2023-04-25T11:55:31;4.07;;;1.52;;
38785;SDS011;24535;45.508;12.252;2023-04-25T11:57:59;2.42;;;1.20;;
38785;SDS011;24535;45.508;12.252;2023-04-25T12:00:25;5.50;;;1.55;;
38785;SDS011;24535;45.508;12.252;2023-04-25T12:02:52;1.55;;;0.98;;
38785;SDS011;24535;45.508;12.252;2023-04-25T12:05:19;2.65;;;0.70;;
38785;SDS011;24535;45.508;12.252;2023-04-25T12:07:45;2.75;;;1.00;;
38785;SDS011;24535;45.508;12.252;2023-04-25T12:10:12;1.55;;;0.75;;
38785;SDS011;24535;45.508;12.252;2023-04-25T12:12:43;1.90;;;0.70;;
38785;SDS011;24535;45.508;12.252;2023-04-25T12:15:17;1.90;;;0.50;;
38785;SDS011;24535;45.508;12.252;2023-04-25T12:17:48;2.65;;;0.93;;
38785;SDS011;24535;45.508;12.252;2023-04-25T12:20:16;2.45;;;0.80;;
38785;SDS011;24535;45.508;12.252;2023-04-25T12:22:45;1.25;;;0.80;;
38785;SDS011;24535;45.508;12.252;2023-04-25T12:25:57;2.03;;;0.77;;
38785;SDS011;24535;45.508;12.252;2023-04-25T12:31:03;2.65;;;0.77;;
38785;SDS011;24535;45.508;12.252;2023-04-25T12:33:32;1.13;;;0.70;;
38785;SDS011;24535;45.508;12.252;2023-04-25T12:35:58;1.58;;;0.50;;
38785;SDS011;24535;45.508;12.252;2023-04-25T12:38:26;1.88;;;0.70;;
38785;SDS011;24535;45.508;12.252;2023-04-25T12:40:54;1.60;;;0.60;;
38785;SDS011;24535;45.508;12.252;2023-04-25T12:43:20;1.67;;;0.57;;
38785;SDS011;24535;45.508;12.252;2023-04-25T12:45:50;0.43;;;0.38;;
38785;SDS011;24535;45.508;12.252;2023-04-25T12:48:16;1.55;;;0.45;;
38785;SDS011;24535;45.508;12.252;2023-04-25T12:50:42;1.35;;;0.60;;
38785;SDS011;24535;45.508;12.252;2023-04-25T12:53:09;1.10;;;0.60;;
38785;SDS011;24535;45.508;12.252;2023-04-25T12:55:35;2.72;;;0.75;;
38785;SDS011;24535;45.508;12.252;2023-04-25T12:58:00;2.72;;;0.60;;
38785;SDS011;24535;45.508;12.252;2023-04-25T13:00:26;2.67;;;1.05;;
38785;SDS011;24535;45.508;12.252;2023-04-25T13:02:52;1.20;;;0.47;;
38785;SDS011;24535;45.508;12.252;2023-04-25T13:05:17;1.10;;;0.60;;
38785;SDS011;24535;45.508;12.252;2023-04-25T13:07:43;3.13;;;0.82;;
38785;SDS011;24535;45.508;12.252;2023-04-25T13:10:08;0.63;;;0.40;;
38785;SDS011;24535;45.508;12.252;2023-04-25T13:12:35;0.68;;;0.40;;
38785;SDS011;24535;45.508;12.252;2023-04-25T13:15:00;0.70;;;0.40;;
38785;SDS011;24535;45.508;12.252;2023-04-25T13:17:26;1.77;;;0.60;;
38785;SDS011;24535;45.508;12.252;2023-04-25T13:19:51;1.55;;;0.40;;
38785;SDS011;24535;45.508;12.252;2023-04-25T13:22:20;0.60;;;0.60;;
38785;SDS011;24535;45.508;12.252;2023-04-25T13:24:46;4.40;;;0.90;;
38785;SDS011;24535;45.508;12.252;2023-04-25T13:27:12;0.32;;;0.32;;
38785;SDS011;24535;45.508;12.252;2023-04-25T13:29:38;1.38;;;0.63;;
38785;SDS011;24535;45.508;12.252;2023-04-25T13:32:05;0.90;;;0.82;;
38785;SDS011;24535;45.508;12.252;2023-04-25T13:34:31;0.88;;;0.70;;
38785;SDS011;24535;45.508;12.252;2023-04-25T13:36:57;2.35;;;0.88;;
38785;SDS011;24535;45.508;12.252;2023-04-25T13:39:22;0.85;;;0.75;;
38785;SDS011;24535;45.508;12.252;2023-04-25T13:41:49;2.55;;;1.00;;
38785;SDS011;24535;45.508;12.252;2023-04-25T13:44:14;1.20;;;0.90;;
38785;SDS011;24535;45.508;12.252;2023-04-25T13:46:40;1.38;;;0.60;;
38785;SDS011;24535;45.508;12.252;2023-04-25T13:49:05;1.50;;;0.93;;
38785;SDS011;24535;45.508;12.252;2023-04-25T13:51:31;0.80;;;0.60;;
38785;SDS011;24535;45.508;12.252;2023-04-25T13:53:57;0.82;;;0.45;;
38785;SDS011;24535;45.508;12.252;2023-04-25T13:56:23;0.98;;;0.60;;
38785;SDS011;24535;45.508;12.252;2023-04-25T13:58:51;0.98;;;0.70;;
38785;SDS011;24535;45.508;12.252;2023-04-25T14:01:17;1.05;;;0.90;;
38785;SDS011;24535;45.508;12.252;2023-04-25T14:03:43;2.33;;;1.10;;
38785;SDS011;24535;45.508;12.252;2023-04-25T14:06:09;1.35;;;0.70;;
38785;SDS011;24535;45.508;12.252;2023-04-25T14:08:36;0.80;;;0.50;;
38785;SDS011;24535;45.508;12.252;2023-04-25T14:11:02;1.00;;;0.68;;
38785;SDS011;24535;45.508;12.252;2023-04-25T14:13:28;1.35;;;0.60;;
38785;SDS011;24535;45.508;12.252;2023-04-25T14:15:53;0.82;;;0.60;;
38785;SDS011;24535;45.508;12.252;2023-04-25T14:18:19;1.02;;;0.70;;
38785;SDS011;24535;45.508;12.252;2023-04-25T14:20:45;2.08;;;0.80;;
38785;SDS011;24535;45.508;12.252;2023-04-25T14:23:11;1.38;;;0.80;;
38785;SDS011;24535;45.508;12.252;2023-04-25T14:25:37;1.52;;;0.82;;
38785;SDS011;24535;45.508;12.252;2023-04-25T14:28:03;1.25;;;0.70;;
38785;SDS011;24535;45.508;12.252;2023-04-25T14:30:28;0.90;;;0.70;;
38785;SDS011;24535;45.508;12.252;2023-04-25T14:32:54;1.15;;;0.70;;
38785;SDS011;24535;45.508;12.252;2023-04-25T14:35:20;1.02;;;0.60;;
38785;SDS011;24535;45.508;12.252;2023-04-25T14:37:46;0.88;;;0.50;;
38785;SDS011;24535;45.508;12.252;2023-04-25T14:40:11;1.10;;;0.73;;
38785;SDS011;24535;45.508;12.252;2023-04-25T14:42:55;0.70;;;0.55;;
38785;SDS011;24535;45.508;12.252;2023-04-25T14:45:21;2.70;;;0.90;;
38785;SDS011;24535;45.508;12.252;2023-04-25T14:48:09;1.52;;;0.90;;
38785;SDS011;24535;45.508;12.252;2023-04-25T14:50:34;3.63;;;1.00;;
38785;SDS011;24535;45.508;12.252;2023-04-25T14:53:00;2.22;;;0.70;;